sensor_id;sensor_type;location;lat;lon;timestamp;P1;durP1;ratioP1;P2;durP2;ratioP2
8102;SDS011;4094;49.948;11.574;2023-10-08T00:01:17;8.50;;;7.70;;
8102;SDS011;4094;49.948;11.574;2023-10-08T00:03:48;8.57;;;7.67;;
8102;SDS011;4094;49.948;11.574;2023-10-08T00:06:18;8.83;;;8.03;;
8102;SDS011;4094;49.948;11.574;2023-10-08T00:08:49;10.17;;;7.90;;
8102;SDS011;4094;49.948;11.574;2023-10-08T00:11:19;9.07;;;8.17;;
8102;SDS011;4094;49.948;11.574;2023-10-08T00:13:50;7.60;;;6.80;;
8102;SDS011;4094;49.948;11.574;2023-10-08T00:16:23;8.97;;;8.17;;
8102;SDS011;4094;49.948;11.574;2023-10-08T00:18:56;8.83;;;7.90;;
8102;SDS011;4094;49.948;11.574;2023-10-08T00:21:35;9.20;;;7.57;;
8102;SDS011;4094;49.948;11.574;2023-10-08T00:24:05;9.53;;;7.67;;
8102;SDS011;4094;49.948;11.574;2023-10-08T00:26:36;9.73;;;7.70;;
8102;SDS011;4094;49.948;11.574;2023-10-08T00:29:08;9.27;;;8.37;;
8102;SDS011;4094;49.948;11.574;2023-10-08T00:31:45;8.20;;;7.43;;
8102;SDS011;4094;49.948;11.574;2023-10-08T00:34:16;9.37;;;7.50;;
8102;SDS011;4094;49.948;11.574;2023-10-08T00:36:48;8.23;;;7.43;;
8102;SDS011;4094;49.948;11.574;2023-10-08T00:39:17;7.47;;;6.83;;
8102;SDS011;4094;49.948;11.574;2023-10-08T00:41:51;7.30;;;6.60;;
8102;SDS011;4094;49.948;11.574;2023-10-08T00:44:26;7.07;;;6.47;;
8102;SDS011;4094;49.948;11.574;2023-10-08T00:46:58;8.60;;;6.33;;
8102;SDS011;4094;49.948;11.574;2023-10-08T00:49:30;7.97;;;7.27;;
8102;SDS011;4094;49.948;11.574;2023-10-08T00:52:22;7.13;;;6.43;;
8102;SDS011;4094;49.948;11.574;2023-10-08T00:54:57;7.80;;;7.10;;
8102;SDS011;4094;49.948;11.574;2023-10-08T00:57:42;7.53;;;6.83;;
8102;SDS011;4094;49.948;11.574;2023-10-08T01:00:15;6.23;;;5.80;;
8102;SDS011;4094;49.948;11.574;2023-10-08T01:02:50;6.93;;;6.30;;
8102;SDS011;4094;49.948;11.574;2023-10-08T01:05:29;7.90;;;6.47;;
8102;SDS011;4094;49.948;11.574;2023-10-08T01:08:14;7.07;;;6.30;;
8102;SDS011;4094;49.948;11.574;2023-10-08T01:10:50;9.40;;;6.73;;
8102;SDS011;4094;49.948;11.574;2023-10-08T01:13:30;9.60;;;6.70;;
8102;SDS011;4094;49.948;11.574;2023-10-08T01:16:03;7.27;;;6.67;;
8102;SDS011;4094;49.948;11.574;2023-10-08T01:18:36;7.23;;;6.53;;
8102;SDS011;4094;49.948;11.574;2023-10-08T01:21:11;7.00;;;6.40;;
8102;SDS011;4094;49.948;11.574;2023-10-08T01:23:58;6.87;;;6.27;;
8102;SDS011;4094;49.948;11.574;2023-10-08T01:26:30;7.30;;;6.60;;
8102;SDS011;4094;49.948;11.574;2023-10-08T01:29:00;7.17;;;6.47;;
8102;SDS011;4094;49.948;11.574;2023-10-08T01:31:31;6.93;;;6.30;;
8102;SDS011;4094;49.948;11.574;2023-10-08T01:34:00;7.27;;;6.57;;
8102;SDS011;4094;49.948;11.574;2023-10-08T01:36:31;8.33;;;6.47;;
8102;SDS011;4094;49.948;11.574;2023-10-08T01:39:04;6.97;;;6.33;;
8102;SDS011;4094;49.948;11.574;2023-10-08T01:41:35;6.73;;;6.13;;
8102;SDS011;4094;49.948;11.574;2023-10-08T01:44:08;7.00;;;6.30;;
8102;SDS011;4094;49.948;11.574;2023-10-08T01:46:37;7.17;;;6.50;;
8102;SDS011;4094;49.948;11.574;2023-10-08T01:49:08;7.67;;;6.87;;
8102;SDS011;4094;49.948;11.574;2023-10-08T01:51:42;6.90;;;6.30;;
8102;SDS011;4094;49.948;11.574;2023-10-08T01:54:24;9.40;;;6.67;;
8102;SDS011;4094;49.948;11.574;2023-10-08T01:56:54;8.70;;;6.20;;
8102;SDS011;4094;49.948;11.574;2023-10-08T01:59:23;7.53;;;6.80;;
8102;SDS011;4094;49.948;11.574;2023-10-08T02:01:53;7.90;;;7.10;;
8102;SDS011;4094;49.948;11.574;2023-10-08T02:04:24;6.70;;;6.10;;
8102;SDS011;4094;49.948;11.574;2023-10-08T02:06:53;7.23;;;6.60;;
8102;SDS011;4094;49.948;11.574;2023-10-08T02:09:25;6.97;;;6.37;;
8102;SDS011;4094;49.948;11.574;2023-10-08T02:11:54;6.97;;;6.30;;
8102;SDS011;4094;49.948;11.574;2023-10-08T02:14:24;7.30;;;6.47;;
8102;SDS011;4094;49.948;11.574;2023-10-08T02:16:53;8.13;;;6.40;;
8102;SDS011;4094;49.948;11.574;2023-10-08T02:19:24;6.97;;;6.37;;
8102;SDS011;4094;49.948;11.574;2023-10-08T02:21:56;7.40;;;6.67;;
8102;SDS011;4094;49.948;11.574;2023-10-08T02:24:27;6.60;;;6.00;;
8102;SDS011;4094;49.948;11.574;2023-10-08T02:26:58;7.50;;;6.80;;
8102;SDS011;4094;49.948;11.574;2023-10-08T02:29:28;7.47;;;6.67;;
8102;SDS011;4094;49.948;11.574;2023-10-08T02:31:58;7.40;;;6.60;;
8102;SDS011;4094;49.948;11.574;2023-10-08T02:34:28;7.13;;;6.53;;
8102;SDS011;4094;49.948;11.574;2023-10-08T02:36:58;6.97;;;6.33;;
8102;SDS011;4094;49.948;11.574;2023-10-08T02:39:28;7.27;;;6.57;;
8102;SDS011;4094;49.948;11.574;2023-10-08T02:41:59;7.50;;;6.80;;
8102;SDS011;4094;49.948;11.574;2023-10-08T02:44:28;6.70;;;6.10;;
8102;SDS011;4094;49.948;11.574;2023-10-08T02:46:58;7.27;;;6.17;;
8102;SDS011;4094;49.948;11.574;2023-10-08T02:49:28;7.67;;;6.93;;
8102;SDS011;4094;49.948;11.574;2023-10-08T02:51:59;7.47;;;6.77;;
8102;SDS011;4094;49.948;11.574;2023-10-08T02:54:33;8.97;;;6.63;;
8102;SDS011;4094;49.948;11.574;2023-10-08T02:57:04;7.60;;;6.90;;
8102;SDS011;4094;49.948;11.574;2023-10-08T02:59:37;8.27;;;7.33;;
8102;SDS011;4094;49.948;11.574;2023-10-08T03:02:11;7.70;;;6.90;;
8102;SDS011;4094;49.948;11.574;2023-10-08T03:04:47;7.77;;;6.97;;
8102;SDS011;4094;49.948;11.574;2023-10-08T03:07:19;7.97;;;7.27;;
8102;SDS011;4094;49.948;11.574;2023-10-08T03:10:01;7.87;;;6.77;;
8102;SDS011;4094;49.948;11.574;2023-10-08T03:12:34;7.33;;;6.20;;
8102;SDS011;4094;49.948;11.574;2023-10-08T03:15:05;9.47;;;7.07;;
8102;SDS011;4094;49.948;11.574;2023-10-08T03:17:59;8.27;;;7.47;;
8102;SDS011;4094;49.948;11.574;2023-10-08T03:20:37;7.47;;;6.77;;
8102;SDS011;4094;49.948;11.574;2023-10-08T03:23:10;6.90;;;6.27;;
8102;SDS011;4094;49.948;11.574;2023-10-08T03:25:55;8.03;;;7.30;;
8102;SDS011;4094;49.948;11.574;2023-10-08T03:28:27;8.30;;;6.80;;
8102;SDS011;4094;49.948;11.574;2023-10-08T03:30:56;7.30;;;6.60;;
8102;SDS011;4094;49.948;11.574;2023-10-08T03:33:32;8.57;;;7.07;;
8102;SDS011;4094;49.948;11.574;2023-10-08T03:36:03;8.00;;;7.20;;
8102;SDS011;4094;49.948;11.574;2023-10-08T03:38:41;7.90;;;7.23;;
8102;SDS011;4094;49.948;11.574;2023-10-08T03:41:21;7.40;;;6.80;;
8102;SDS011;4094;49.948;11.574;2023-10-08T03:43:55;8.13;;;7.37;;
8102;SDS011;4094;49.948;11.574;2023-10-08T03:46:29;7.77;;;6.97;;
8102;SDS011;4094;49.948;11.574;2023-10-08T03:48:59;8.30;;;7.60;;
8102;SDS011;4094;49.948;11.574;2023-10-08T03:51:32;8.80;;;7.07;;
8102;SDS011;4094;49.948;11.574;2023-10-08T03:54:07;7.17;;;6.57;;
8102;SDS011;4094;49.948;11.574;2023-10-08T03:56:46;7.77;;;7.03;;
8102;SDS011;4094;49.948;11.574;2023-10-08T03:59:16;8.13;;;7.40;;
8102;SDS011;4094;49.948;11.574;2023-10-08T04:01:58;7.87;;;7.17;;
8102;SDS011;4094;49.948;11.574;2023-10-08T04:04:48;7.33;;;6.30;;
8102;SDS011;4094;49.948;11.574;2023-10-08T04:07:20;7.83;;;7.13;;
8102;SDS011;4094;49.948;11.574;2023-10-08T04:10:07;8.10;;;6.70;;
8102;SDS011;4094;49.948;11.574;2023-10-08T04:13:17;7.87;;;7.17;;
8102;SDS011;4094;49.948;11.574;2023-10-08T04:15:47;9.30;;;7.07;;
8102;SDS011;4094;49.948;11.574;2023-10-08T04:18:16;7.90;;;7.17;;
8102;SDS011;4094;49.948;11.574;2023-10-08T04:20:47;8.37;;;6.67;;
8102;SDS011;4094;49.948;11.574;2023-10-08T04:23:28;6.53;;;5.93;;
8102;SDS011;4094;49.948;11.574;2023-10-08T04:25:57;7.83;;;7.03;;
8102;SDS011;4094;49.948;11.574;2023-10-08T04:28:28;7.00;;;6.30;;
8102;SDS011;4094;49.948;11.574;2023-10-08T04:31:02;7.30;;;6.60;;
8102;SDS011;4094;49.948;11.574;2023-10-08T04:33:43;7.77;;;7.07;;
8102;SDS011;4094;49.948;11.574;2023-10-08T04:36:12;7.50;;;6.80;;
8102;SDS011;4094;49.948;11.574;2023-10-08T04:38:45;7.33;;;6.73;;
8102;SDS011;4094;49.948;11.574;2023-10-08T04:41:16;7.10;;;6.50;;
8102;SDS011;4094;49.948;11.574;2023-10-08T04:43:48;7.13;;;6.53;;
8102;SDS011;4094;49.948;11.574;2023-10-08T04:46:17;7.03;;;6.43;;
8102;SDS011;4094;49.948;11.574;2023-10-08T04:49:07;6.83;;;6.23;;
8102;SDS011;4094;49.948;11.574;2023-10-08T04:51:38;7.67;;;6.97;;
8102;SDS011;4094;49.948;11.574;2023-10-08T04:54:11;6.70;;;6.10;;
8102;SDS011;4094;49.948;11.574;2023-10-08T04:56:44;6.60;;;6.07;;
8102;SDS011;4094;49.948;11.574;2023-10-08T04:59:17;6.80;;;6.10;;
8102;SDS011;4094;49.948;11.574;2023-10-08T05:01:49;9.80;;;6.43;;
8102;SDS011;4094;49.948;11.574;2023-10-08T05:04:39;7.37;;;6.63;;
8102;SDS011;4094;49.948;11.574;2023-10-08T05:07:23;7.00;;;6.30;;
8102;SDS011;4094;49.948;11.574;2023-10-08T05:10:21;7.77;;;6.43;;
8102;SDS011;4094;49.948;11.574;2023-10-08T05:13:11;6.33;;;5.73;;
8102;SDS011;4094;49.948;11.574;2023-10-08T05:15:44;7.90;;;6.37;;
8102;SDS011;4094;49.948;11.574;2023-10-08T05:18:30;7.13;;;6.43;;
8102;SDS011;4094;49.948;11.574;2023-10-08T05:21:25;7.67;;;6.70;;
8102;SDS011;4094;49.948;11.574;2023-10-08T05:24:08;7.17;;;6.40;;
8102;SDS011;4094;49.948;11.574;2023-10-08T05:26:39;7.33;;;6.57;;
8102;SDS011;4094;49.948;11.574;2023-10-08T05:29:14;7.57;;;6.23;;
8102;SDS011;4094;49.948;11.574;2023-10-08T05:32:03;6.60;;;6.03;;
8102;SDS011;4094;49.948;11.574;2023-10-08T05:34:50;6.77;;;6.07;;
8102;SDS011;4094;49.948;11.574;2023-10-08T05:37:40;7.30;;;6.57;;
8102;SDS011;4094;49.948;11.574;2023-10-08T05:40:10;6.70;;;6.00;;
8102;SDS011;4094;49.948;11.574;2023-10-08T05:42:49;8.83;;;6.77;;
8102;SDS011;4094;49.948;11.574;2023-10-08T05:45:30;7.53;;;6.47;;
8102;SDS011;4094;49.948;11.574;2023-10-08T05:48:04;7.30;;;6.57;;
8102;SDS011;4094;49.948;11.574;2023-10-08T05:50:41;6.90;;;6.27;;
8102;SDS011;4094;49.948;11.574;2023-10-08T05:53:40;10.07;;;6.77;;
8102;SDS011;4094;49.948;11.574;2023-10-08T05:56:11;6.67;;;6.07;;
8102;SDS011;4094;49.948;11.574;2023-10-08T05:58:57;7.00;;;6.40;;
8102;SDS011;4094;49.948;11.574;2023-10-08T06:01:41;7.97;;;6.47;;
8102;SDS011;4094;49.948;11.574;2023-10-08T06:04:14;6.73;;;6.17;;
8102;SDS011;4094;49.948;11.574;2023-10-08T06:07:09;6.93;;;6.03;;
8102;SDS011;4094;49.948;11.574;2023-10-08T06:09:50;7.03;;;5.90;;
8102;SDS011;4094;49.948;11.574;2023-10-08T06:12:29;8.63;;;6.77;;
8102;SDS011;4094;49.948;11.574;2023-10-08T06:15:07;6.87;;;6.13;;
8102;SDS011;4094;49.948;11.574;2023-10-08T06:17:36;7.30;;;6.60;;
8102;SDS011;4094;49.948;11.574;2023-10-08T06:20:27;7.17;;;6.47;;
8102;SDS011;4094;49.948;11.574;2023-10-08T06:22:57;7.70;;;6.07;;
8102;SDS011;4094;49.948;11.574;2023-10-08T06:25:34;12.37;;;7.40;;
8102;SDS011;4094;49.948;11.574;2023-10-08T06:28:13;6.60;;;5.87;;
8102;SDS011;4094;49.948;11.574;2023-10-08T06:30:46;6.63;;;5.77;;
8102;SDS011;4094;49.948;11.574;2023-10-08T06:33:15;6.93;;;6.23;;
8102;SDS011;4094;49.948;11.574;2023-10-08T06:35:46;7.50;;;6.20;;
8102;SDS011;4094;49.948;11.574;2023-10-08T06:38:29;8.97;;;6.47;;
8102;SDS011;4094;49.948;11.574;2023-10-08T06:40:59;6.77;;;6.17;;
8102;SDS011;4094;49.948;11.574;2023-10-08T06:43:37;6.47;;;5.87;;
8102;SDS011;4094;49.948;11.574;2023-10-08T06:46:06;7.53;;;6.83;;
8102;SDS011;4094;49.948;11.574;2023-10-08T06:48:37;8.33;;;6.30;;
8102;SDS011;4094;49.948;11.574;2023-10-08T06:51:12;8.07;;;6.67;;
8102;SDS011;4094;49.948;11.574;2023-10-08T06:53:42;7.47;;;6.43;;
8102;SDS011;4094;49.948;11.574;2023-10-08T06:56:14;6.83;;;6.20;;
8102;SDS011;4094;49.948;11.574;2023-10-08T06:58:47;7.27;;;6.53;;
8102;SDS011;4094;49.948;11.574;2023-10-08T07:01:16;7.30;;;6.17;;
8102;SDS011;4094;49.948;11.574;2023-10-08T07:03:53;7.13;;;6.43;;
8102;SDS011;4094;49.948;11.574;2023-10-08T07:06:32;6.73;;;6.00;;
8102;SDS011;4094;49.948;11.574;2023-10-08T07:09:04;6.33;;;5.83;;
8102;SDS011;4094;49.948;11.574;2023-10-08T07:11:34;8.73;;;6.70;;
8102;SDS011;4094;49.948;11.574;2023-10-08T07:14:06;7.57;;;6.80;;
8102;SDS011;4094;49.948;11.574;2023-10-08T07:16:38;7.40;;;6.57;;
8102;SDS011;4094;49.948;11.574;2023-10-08T07:19:09;7.40;;;6.70;;
8102;SDS011;4094;49.948;11.574;2023-10-08T07:21:47;8.60;;;7.00;;
8102;SDS011;4094;49.948;11.574;2023-10-08T07:24:21;6.97;;;6.30;;
8102;SDS011;4094;49.948;11.574;2023-10-08T07:26:50;8.67;;;7.00;;
8102;SDS011;4094;49.948;11.574;2023-10-08T07:29:19;8.37;;;6.87;;
8102;SDS011;4094;49.948;11.574;2023-10-08T07:31:48;6.97;;;6.20;;
8102;SDS011;4094;49.948;11.574;2023-10-08T07:34:19;6.63;;;5.80;;
8102;SDS011;4094;49.948;11.574;2023-10-08T07:36:55;6.87;;;6.13;;
8102;SDS011;4094;49.948;11.574;2023-10-08T07:39:24;6.60;;;6.00;;
8102;SDS011;4094;49.948;11.574;2023-10-08T07:42:02;6.93;;;5.90;;
8102;SDS011;4094;49.948;11.574;2023-10-08T07:44:33;6.53;;;5.93;;
8102;SDS011;4094;49.948;11.574;2023-10-08T07:47:04;7.50;;;6.27;;
8102;SDS011;4094;49.948;11.574;2023-10-08T07:49:37;6.33;;;5.77;;
8102;SDS011;4094;49.948;11.574;2023-10-08T07:52:08;8.47;;;6.47;;
8102;SDS011;4094;49.948;11.574;2023-10-08T07:54:42;6.73;;;6.10;;
8102;SDS011;4094;49.948;11.574;2023-10-08T07:57:12;6.97;;;6.37;;
8102;SDS011;4094;49.948;11.574;2023-10-08T07:59:46;6.90;;;6.20;;
8102;SDS011;4094;49.948;11.574;2023-10-08T08:02:16;6.97;;;6.27;;
8102;SDS011;4094;49.948;11.574;2023-10-08T08:04:50;7.20;;;6.47;;
8102;SDS011;4094;49.948;11.574;2023-10-08T08:07:21;6.93;;;6.10;;
8102;SDS011;4094;49.948;11.574;2023-10-08T08:09:52;6.57;;;5.90;;
8102;SDS011;4094;49.948;11.574;2023-10-08T08:12:27;6.23;;;5.60;;
8102;SDS011;4094;49.948;11.574;2023-10-08T08:15:00;6.40;;;5.70;;
8102;SDS011;4094;49.948;11.574;2023-10-08T08:17:42;6.10;;;5.50;;
8102;SDS011;4094;49.948;11.574;2023-10-08T08:20:11;6.47;;;5.87;;
8102;SDS011;4094;49.948;11.574;2023-10-08T08:22:47;7.47;;;6.10;;
8102;SDS011;4094;49.948;11.574;2023-10-08T08:25:21;6.97;;;6.27;;
8102;SDS011;4094;49.948;11.574;2023-10-08T08:28:02;6.13;;;5.57;;
8102;SDS011;4094;49.948;11.574;2023-10-08T08:30:33;8.77;;;6.10;;
8102;SDS011;4094;49.948;11.574;2023-10-08T08:33:04;6.47;;;5.90;;
8102;SDS011;4094;49.948;11.574;2023-10-08T08:35:38;6.67;;;5.97;;
8102;SDS011;4094;49.948;11.574;2023-10-08T08:38:09;7.00;;;6.30;;
8102;SDS011;4094;49.948;11.574;2023-10-08T08:40:39;9.83;;;6.73;;
8102;SDS011;4094;49.948;11.574;2023-10-08T08:43:08;6.53;;;5.83;;
8102;SDS011;4094;49.948;11.574;2023-10-08T08:45:39;7.23;;;6.30;;
8102;SDS011;4094;49.948;11.574;2023-10-08T08:48:08;7.73;;;5.80;;
8102;SDS011;4094;49.948;11.574;2023-10-08T08:50:39;7.10;;;6.40;;
8102;SDS011;4094;49.948;11.574;2023-10-08T08:53:10;7.23;;;6.53;;
8102;SDS011;4094;49.948;11.574;2023-10-08T08:55:39;7.03;;;6.17;;
8102;SDS011;4094;49.948;11.574;2023-10-08T08:58:11;6.83;;;6.10;;
8102;SDS011;4094;49.948;11.574;2023-10-08T09:00:40;8.80;;;6.27;;
8102;SDS011;4094;49.948;11.574;2023-10-08T09:03:10;11.97;;;6.03;;
8102;SDS011;4094;49.948;11.574;2023-10-08T09:05:41;8.83;;;6.27;;
8102;SDS011;4094;49.948;11.574;2023-10-08T09:08:18;9.17;;;6.37;;
8102;SDS011;4094;49.948;11.574;2023-10-08T09:10:52;9.27;;;6.37;;
8102;SDS011;4094;49.948;11.574;2023-10-08T09:13:28;7.60;;;6.10;;
8102;SDS011;4094;49.948;11.574;2023-10-08T09:16:06;6.83;;;6.13;;
8102;SDS011;4094;49.948;11.574;2023-10-08T09:18:36;7.40;;;6.03;;
8102;SDS011;4094;49.948;11.574;2023-10-08T09:21:07;6.50;;;5.90;;
8102;SDS011;4094;49.948;11.574;2023-10-08T09:23:40;8.00;;;6.83;;
8102;SDS011;4094;49.948;11.574;2023-10-08T09:26:11;10.40;;;6.20;;
8102;SDS011;4094;49.948;11.574;2023-10-08T09:28:44;7.97;;;5.87;;
8102;SDS011;4094;49.948;11.574;2023-10-08T09:31:15;7.90;;;6.60;;
8102;SDS011;4094;49.948;11.574;2023-10-08T09:33:53;7.40;;;5.80;;
8102;SDS011;4094;49.948;11.574;2023-10-08T09:36:23;7.93;;;6.30;;
8102;SDS011;4094;49.948;11.574;2023-10-08T09:39:01;7.80;;;6.27;;
8102;SDS011;4094;49.948;11.574;2023-10-08T09:41:33;7.37;;;5.23;;
8102;SDS011;4094;49.948;11.574;2023-10-08T09:44:04;6.53;;;5.00;;
8102;SDS011;4094;49.948;11.574;2023-10-08T09:46:39;4.50;;;4.17;;
8102;SDS011;4094;49.948;11.574;2023-10-08T09:49:10;4.80;;;4.30;;
8102;SDS011;4094;49.948;11.574;2023-10-08T09:51:44;3.83;;;3.60;;
8102;SDS011;4094;49.948;11.574;2023-10-08T09:54:17;4.10;;;3.70;;
8102;SDS011;4094;49.948;11.574;2023-10-08T09:56:53;3.70;;;3.50;;
8102;SDS011;4094;49.948;11.574;2023-10-08T09:59:25;4.03;;;3.73;;
8102;SDS011;4094;49.948;11.574;2023-10-08T10:01:55;4.80;;;4.50;;
8102;SDS011;4094;49.948;11.574;2023-10-08T10:04:29;4.03;;;3.73;;
8102;SDS011;4094;49.948;11.574;2023-10-08T10:07:07;4.50;;;4.10;;
8102;SDS011;4094;49.948;11.574;2023-10-08T10:09:49;4.30;;;4.00;;
8102;SDS011;4094;49.948;11.574;2023-10-08T10:12:25;3.90;;;3.70;;
8102;SDS011;4094;49.948;11.574;2023-10-08T10:14:56;3.93;;;3.73;;
8102;SDS011;4094;49.948;11.574;2023-10-08T10:17:28;3.87;;;3.67;;
8102;SDS011;4094;49.948;11.574;2023-10-08T10:20:11;3.73;;;3.50;;
8102;SDS011;4094;49.948;11.574;2023-10-08T10:22:43;3.30;;;3.17;;
8102;SDS011;4094;49.948;11.574;2023-10-08T10:25:16;3.53;;;3.33;;
8102;SDS011;4094;49.948;11.574;2023-10-08T10:30:50;3.50;;;3.30;;
8102;SDS011;4094;49.948;11.574;2023-10-08T10:33:20;4.40;;;4.00;;
8102;SDS011;4094;49.948;11.574;2023-10-08T10:35:51;3.90;;;3.70;;
8102;SDS011;4094;49.948;11.574;2023-10-08T10:38:21;3.60;;;3.40;;
8102;SDS011;4094;49.948;11.574;2023-10-08T10:40:55;4.53;;;4.23;;
8102;SDS011;4094;49.948;11.574;2023-10-08T10:43:36;3.90;;;3.70;;
8102;SDS011;4094;49.948;11.574;2023-10-08T10:46:07;3.87;;;3.67;;
8102;SDS011;4094;49.948;11.574;2023-10-08T10:49:03;4.10;;;3.80;;
8102;SDS011;4094;49.948;11.574;2023-10-08T10:51:46;4.13;;;3.93;;
8102;SDS011;4094;49.948;11.574;2023-10-08T10:54:16;3.70;;;3.50;;
8102;SDS011;4094;49.948;11.574;2023-10-08T10:56:51;3.70;;;3.50;;
8102;SDS011;4094;49.948;11.574;2023-10-08T10:59:31;3.57;;;3.37;;
8102;SDS011;4094;49.948;11.574;2023-10-08T11:02:08;3.60;;;3.40;;
8102;SDS011;4094;49.948;11.574;2023-10-08T11:04:37;3.37;;;3.20;;
8102;SDS011;4094;49.948;11.574;2023-10-08T11:07:15;3.77;;;3.57;;
8102;SDS011;4094;49.948;11.574;2023-10-08T11:09:47;4.00;;;3.80;;
8102;SDS011;4094;49.948;11.574;2023-10-08T11:12:16;3.87;;;3.67;;
8102;SDS011;4094;49.948;11.574;2023-10-08T11:14:50;3.73;;;3.53;;
8102;SDS011;4094;49.948;11.574;2023-10-08T11:17:23;3.53;;;3.43;;
8102;SDS011;4094;49.948;11.574;2023-10-08T11:19:55;3.70;;;3.60;;
8102;SDS011;4094;49.948;11.574;2023-10-08T11:22:28;3.83;;;3.63;;
8102;SDS011;4094;49.948;11.574;2023-10-08T11:25:20;4.33;;;4.10;;
8102;SDS011;4094;49.948;11.574;2023-10-08T11:27:51;4.17;;;3.87;;
8102;SDS011;4094;49.948;11.574;2023-10-08T11:30:26;3.47;;;3.27;;
8102;SDS011;4094;49.948;11.574;2023-10-08T11:32:58;3.80;;;3.60;;
8102;SDS011;4094;49.948;11.574;2023-10-08T11:35:29;3.60;;;3.40;;
8102;SDS011;4094;49.948;11.574;2023-10-08T11:38:01;3.80;;;3.60;;
8102;SDS011;4094;49.948;11.574;2023-10-08T11:40:31;3.90;;;3.70;;
8102;SDS011;4094;49.948;11.574;2023-10-08T11:43:17;3.70;;;3.50;;
8102;SDS011;4094;49.948;11.574;2023-10-08T11:45:46;4.23;;;3.50;;
8102;SDS011;4094;49.948;11.574;2023-10-08T11:48:16;4.40;;;4.10;;
8102;SDS011;4094;49.948;11.574;2023-10-08T11:50:54;4.80;;;4.40;;
8102;SDS011;4094;49.948;11.574;2023-10-08T11:53:25;12.07;;;9.33;;
8102;SDS011;4094;49.948;11.574;2023-10-08T11:55:55;8.47;;;7.50;;
8102;SDS011;4094;49.948;11.574;2023-10-08T11:58:25;7.13;;;6.53;;
8102;SDS011;4094;49.948;11.574;2023-10-08T12:01:04;8.50;;;7.70;;
8102;SDS011;4094;49.948;11.574;2023-10-08T12:03:34;8.03;;;7.23;;
8102;SDS011;4094;49.948;11.574;2023-10-08T12:06:05;7.60;;;7.07;;
8102;SDS011;4094;49.948;11.574;2023-10-08T12:08:34;4.97;;;4.67;;
8102;SDS011;4094;49.948;11.574;2023-10-08T12:11:07;4.70;;;4.50;;
8102;SDS011;4094;49.948;11.574;2023-10-08T12:13:40;6.17;;;5.67;;
8102;SDS011;4094;49.948;11.574;2023-10-08T12:16:14;6.60;;;6.10;;
8102;SDS011;4094;49.948;11.574;2023-10-08T12:18:49;8.80;;;7.93;;
8102;SDS011;4094;49.948;11.574;2023-10-08T12:21:30;5.17;;;4.87;;
8102;SDS011;4094;49.948;11.574;2023-10-08T12:24:00;4.57;;;4.23;;
8102;SDS011;4094;49.948;11.574;2023-10-08T12:26:33;5.20;;;4.80;;
8102;SDS011;4094;49.948;11.574;2023-10-08T12:29:02;4.50;;;4.20;;
8102;SDS011;4094;49.948;11.574;2023-10-08T12:31:31;4.37;;;4.17;;
8102;SDS011;4094;49.948;11.574;2023-10-08T12:34:01;3.87;;;3.67;;
8102;SDS011;4094;49.948;11.574;2023-10-08T12:36:33;3.97;;;3.77;;
8102;SDS011;4094;49.948;11.574;2023-10-08T12:39:03;5.10;;;4.80;;
8102;SDS011;4094;49.948;11.574;2023-10-08T12:41:42;4.73;;;4.43;;
8102;SDS011;4094;49.948;11.574;2023-10-08T12:44:12;4.20;;;4.00;;
8102;SDS011;4094;49.948;11.574;2023-10-08T12:46:43;4.23;;;3.93;;
8102;SDS011;4094;49.948;11.574;2023-10-08T12:49:16;4.40;;;4.20;;
8102;SDS011;4094;49.948;11.574;2023-10-08T12:51:50;8.10;;;7.50;;
8102;SDS011;4094;49.948;11.574;2023-10-08T12:54:20;5.03;;;4.70;;
8102;SDS011;4094;49.948;11.574;2023-10-08T12:56:51;4.50;;;4.30;;
8102;SDS011;4094;49.948;11.574;2023-10-08T12:59:23;4.37;;;4.17;;
8102;SDS011;4094;49.948;11.574;2023-10-08T13:01:54;4.60;;;4.40;;
8102;SDS011;4094;49.948;11.574;2023-10-08T13:04:24;4.23;;;4.03;;
8102;SDS011;4094;49.948;11.574;2023-10-08T13:06:58;4.10;;;3.90;;
8102;SDS011;4094;49.948;11.574;2023-10-08T13:09:29;4.10;;;3.90;;
8102;SDS011;4094;49.948;11.574;2023-10-08T13:11:59;4.10;;;3.87;;
8102;SDS011;4094;49.948;11.574;2023-10-08T13:14:29;4.33;;;4.13;;
8102;SDS011;4094;49.948;11.574;2023-10-08T13:16:58;4.17;;;3.97;;
8102;SDS011;4094;49.948;11.574;2023-10-08T13:19:27;4.33;;;4.03;;
8102;SDS011;4094;49.948;11.574;2023-10-08T13:22:00;4.30;;;4.00;;
8102;SDS011;4094;49.948;11.574;2023-10-08T13:24:29;3.97;;;3.67;;
8102;SDS011;4094;49.948;11.574;2023-10-08T13:26:58;3.80;;;3.70;;
8102;SDS011;4094;49.948;11.574;2023-10-08T13:29:27;3.90;;;3.70;;
8102;SDS011;4094;49.948;11.574;2023-10-08T13:32:00;4.00;;;3.80;;
8102;SDS011;4094;49.948;11.574;2023-10-08T13:34:31;4.10;;;3.90;;
8102;SDS011;4094;49.948;11.574;2023-10-08T13:37:02;3.67;;;3.47;;
8102;SDS011;4094;49.948;11.574;2023-10-08T13:39:31;3.80;;;3.57;;
8102;SDS011;4094;49.948;11.574;2023-10-08T13:42:03;3.63;;;3.43;;
8102;SDS011;4094;49.948;11.574;2023-10-08T13:44:32;3.90;;;3.70;;
8102;SDS011;4094;49.948;11.574;2023-10-08T13:47:02;11.97;;;10.67;;
8102;SDS011;4094;49.948;11.574;2023-10-08T13:49:33;12.43;;;11.20;;
8102;SDS011;4094;49.948;11.574;2023-10-08T13:52:03;7.30;;;6.73;;
8102;SDS011;4094;49.948;11.574;2023-10-08T13:54:35;5.20;;;4.90;;
8102;SDS011;4094;49.948;11.574;2023-10-08T13:57:09;5.40;;;5.10;;
8102;SDS011;4094;49.948;11.574;2023-10-08T13:59:42;3.90;;;3.80;;
8102;SDS011;4094;49.948;11.574;2023-10-08T14:02:11;3.93;;;3.73;;
8102;SDS011;4094;49.948;11.574;2023-10-08T14:04:43;4.07;;;3.87;;
8102;SDS011;4094;49.948;11.574;2023-10-08T14:07:14;3.87;;;3.67;;
8102;SDS011;4094;49.948;11.574;2023-10-08T14:09:44;3.60;;;3.50;;
8102;SDS011;4094;49.948;11.574;2023-10-08T14:12:14;3.40;;;3.30;;
8102;SDS011;4094;49.948;11.574;2023-10-08T14:14:43;3.83;;;3.63;;
8102;SDS011;4094;49.948;11.574;2023-10-08T14:17:13;4.27;;;4.07;;
8102;SDS011;4094;49.948;11.574;2023-10-08T14:19:43;4.53;;;4.33;;
8102;SDS011;4094;49.948;11.574;2023-10-08T14:22:21;3.80;;;3.60;;
8102;SDS011;4094;49.948;11.574;2023-10-08T14:24:50;3.90;;;3.70;;
8102;SDS011;4094;49.948;11.574;2023-10-08T14:27:27;4.30;;;4.10;;
8102;SDS011;4094;49.948;11.574;2023-10-08T14:29:59;4.03;;;3.83;;
8102;SDS011;4094;49.948;11.574;2023-10-08T14:32:32;4.10;;;3.90;;
8102;SDS011;4094;49.948;11.574;2023-10-08T14:35:02;3.80;;;3.70;;
8102;SDS011;4094;49.948;11.574;2023-10-08T14:37:51;4.53;;;3.70;;
8102;SDS011;4094;49.948;11.574;2023-10-08T14:40:37;3.97;;;3.77;;
8102;SDS011;4094;49.948;11.574;2023-10-08T14:43:24;3.57;;;3.37;;
8102;SDS011;4094;49.948;11.574;2023-10-08T14:45:53;3.90;;;3.70;;
8102;SDS011;4094;49.948;11.574;2023-10-08T14:48:22;4.00;;;3.80;;
8102;SDS011;4094;49.948;11.574;2023-10-08T14:50:51;3.87;;;3.70;;
8102;SDS011;4094;49.948;11.574;2023-10-08T14:53:22;4.30;;;4.10;;
8102;SDS011;4094;49.948;11.574;2023-10-08T14:55:52;3.80;;;3.63;;
8102;SDS011;4094;49.948;11.574;2023-10-08T14:58:21;3.77;;;3.57;;
8102;SDS011;4094;49.948;11.574;2023-10-08T15:00:54;3.83;;;3.73;;
8102;SDS011;4094;49.948;11.574;2023-10-08T15:03:23;4.17;;;3.97;;
8102;SDS011;4094;49.948;11.574;2023-10-08T15:05:54;3.97;;;3.77;;
8102;SDS011;4094;49.948;11.574;2023-10-08T15:08:25;4.10;;;3.90;;
8102;SDS011;4094;49.948;11.574;2023-10-08T15:10:54;4.23;;;4.03;;
8102;SDS011;4094;49.948;11.574;2023-10-08T15:13:23;4.27;;;4.07;;
8102;SDS011;4094;49.948;11.574;2023-10-08T15:15:53;4.37;;;4.17;;
8102;SDS011;4094;49.948;11.574;2023-10-08T15:18:23;4.03;;;3.83;;
8102;SDS011;4094;49.948;11.574;2023-10-08T15:21:01;4.70;;;4.40;;
8102;SDS011;4094;49.948;11.574;2023-10-08T15:23:33;4.43;;;4.23;;
8102;SDS011;4094;49.948;11.574;2023-10-08T15:26:03;4.10;;;3.90;;
8102;SDS011;4094;49.948;11.574;2023-10-08T15:28:32;4.67;;;4.40;;
8102;SDS011;4094;49.948;11.574;2023-10-08T15:31:02;4.23;;;4.03;;
8102;SDS011;4094;49.948;11.574;2023-10-08T15:33:32;4.03;;;3.83;;
8102;SDS011;4094;49.948;11.574;2023-10-08T15:36:04;4.20;;;4.00;;
8102;SDS011;4094;49.948;11.574;2023-10-08T15:38:34;4.10;;;3.90;;
8102;SDS011;4094;49.948;11.574;2023-10-08T15:41:03;4.27;;;4.07;;
8102;SDS011;4094;49.948;11.574;2023-10-08T15:43:32;4.27;;;4.07;;